Time;durP1;ratioP1;P1;durP2;ratioP2;P2;SDS_P1;SDS_P2;PMS_P1;PMS_P2;Temp;Humidity;BMP_temperature;BMP_pressure;BME280_temperature;BME280_humidity;BME280_pressure;Samples;Min_cycle;Max_cycle;Signal;HPM_P1;HPM_P2
2022/10/10 00:00:43;;;;;;;5.20;2.70;;;9.10;99.90;;;;;;5055103;28;20029;-73
2022/10/10 00:03:09;;;;;;;8.23;3.03;;;9.20;99.90;;;;;;5036742;28;20025;-74
2022/10/10 00:05:36;;;;;;;6.80;3.08;;;9.10;99.90;;;;;;5036880;28;20063;-73
2022/10/10 00:08:03;;;;;;;6.80;3.20;;;9.00;99.90;;;;;;5037215;28;20119;-73
2022/10/10 00:10:29;;;;;;;5.93;2.92;;;8.90;99.90;;;;;;5036837;28;20025;-74
2022/10/10 00:12:54;;;;;;;5.00;2.95;;;8.90;99.90;;;;;;5036797;28;20112;-74
2022/10/10 00:15:20;;;;;;;5.20;2.50;;;8.80;99.90;;;;;;5054023;28;20464;-74
2022/10/10 00:17:46;;;;;;;5.13;3.08;;;8.90;99.90;;;;;;5036398;28;20037;-74
2022/10/10 00:20:13;;;;;;;9.70;3.05;;;8.90;99.90;;;;;;5036648;28;20025;-74
2022/10/10 00:22:40;;;;;;;5.43;3.20;;;8.90;99.90;;;;;;5035715;28;20047;-74
2022/10/10 00:25:07;;;;;;;4.00;2.60;;;9.00;99.90;;;;;;5036041;28;20024;-73
2022/10/10 00:27:33;;;;;;;6.55;2.58;;;9.00;99.90;;;;;;5036404;28;20032;-73
2022/10/10 00:29:59;;;;;;;10.00;3.30;;;9.00;99.90;;;;;;5022269;28;20119;-74
2022/10/10 00:32:25;;;;;;;4.40;2.92;;;9.00;99.90;;;;;;5016377;28;20108;-74
2022/10/10 00:34:51;;;;;;;5.93;2.97;;;8.80;99.90;;;;;;5017298;28;20115;-74
2022/10/10 00:37:17;;;;;;;4.82;2.60;;;8.60;99.90;;;;;;5016702;28;20472;-73
2022/10/10 00:39:42;;;;;;;7.43;3.67;;;8.60;99.90;;;;;;5022751;28;20021;-73
2022/10/10 00:42:12;;;;;;;5.00;3.38;;;8.80;99.90;;;;;;5036083;28;20032;-74
2022/10/10 00:44:43;;;;;;;5.75;3.83;;;8.80;99.90;;;;;;5036872;28;20029;-73
2022/10/10 00:47:09;;;;;;;6.55;3.83;;;8.80;99.90;;;;;;5036284;28;20025;-73
2022/10/10 00:49:38;;;;;;;7.18;3.15;;;8.70;99.90;;;;;;5036229;28;20020;-73
2022/10/10 00:52:05;;;;;;;7.28;2.95;;;8.60;99.90;;;;;;5036172;28;20021;-74
2022/10/10 00:54:32;;;;;;;4.88;2.72;;;8.60;99.90;;;;;;5035907;28;20115;-73
2022/10/10 00:57:12;;;;;;;5.50;2.97;;;8.60;99.90;;;;;;5028417;28;20108;-74
2022/10/10 00:59:41;;;;;;;7.57;3.13;;;8.50;99.90;;;;;;5016111;28;20029;-73
2022/10/10 01:02:06;;;;;;;6.95;3.63;;;8.50;99.90;;;;;;5033620;28;20032;-73
2022/10/10 01:04:41;;;;;;;5.03;3.17;;;8.50;99.90;;;;;;5015920;28;20120;-73
2022/10/10 01:07:13;;;;;;;4.57;3.20;;;8.40;99.90;;;;;;5033542;28;20196;-73
2022/10/10 01:09:40;;;;;;;;;;;8.30;99.90;;;;;;5033745;28;20056;-75
2022/10/10 01:12:19;;;;;;;4.95;3.03;;;8.20;99.90;;;;;;5033467;28;19905;-74
2022/10/10 01:15:08;;;;;;;4.32;2.33;;;8.20;99.90;;;;;;5016708;28;20030;-73
2022/10/10 01:17:46;;;;;;;6.30;2.97;;;8.50;99.90;;;;;;5002923;28;20056;-74
2022/10/10 01:20:26;;;;;;;11.07;3.35;;;8.40;99.90;;;;;;5033246;28;20029;-73
2022/10/10 01:23:05;;;;;;;5.55;3.42;;;8.40;99.90;;;;;;5033311;28;20056;-74
2022/10/10 01:25:42;;;;;;;3.63;2.88;;;8.30;99.90;;;;;;5016055;28;20112;-73
2022/10/10 01:28:36;;;;;;;5.80;3.55;;;8.30;99.90;;;;;;5016253;28;20025;-73
2022/10/10 01:31:04;;;;;;;10.70;3.30;;;8.30;99.90;;;;;;5016486;28;20021;-73
2022/10/10 01:34:02;;;;;;;4.03;3.03;;;8.30;99.90;;;;;;5015559;28;20037;-75
2022/10/10 01:36:48;;;;;;;3.58;2.67;;;8.30;99.90;;;;;;5035532;28;20048;-74
2022/10/10 01:39:38;;;;;;;5.05;3.10;;;8.30;99.90;;;;;;5053570;28;20025;-73
2022/10/10 01:42:12;;;;;;;7.50;3.10;;;8.20;99.90;;;;;;5035186;28;20021;-74
2022/10/10 01:44:43;;;;;;;5.63;3.15;;;8.10;99.90;;;;;;5030067;28;20029;-74
2022/10/10 01:47:10;;;;;;;6.85;2.83;;;8.10;99.90;;;;;;5035189;28;20097;-74
2022/10/10 01:49:37;;;;;;;5.47;2.78;;;8.20;99.90;;;;;;5053092;28;20017;-73
2022/10/10 01:52:11;;;;;;;5.43;2.55;;;8.20;99.90;;;;;;5035094;28;20031;-74
2022/10/10 01:55:02;;;;;;;6.75;3.00;;;8.20;99.90;;;;;;5045182;28;20469;-74
2022/10/10 01:57:53;;;;;;;9.27;3.55;;;8.20;99.90;;;;;;5033144;28;20025;-74
2022/10/10 02:00:18;;;;;;;5.82;2.95;;;8.20;99.90;;;;;;5016267;28;20021;-73
2022/10/10 02:03:10;;;;;;;5.40;3.00;;;8.20;99.90;;;;;;5014840;28;20057;-74
2022/10/10 02:05:45;;;;;;;6.00;3.08;;;8.20;99.90;;;;;;5015397;28;20504;-73
2022/10/10 02:08:31;;;;;;;6.82;3.22;;;8.20;99.90;;;;;;5016025;28;20030;-73
2022/10/10 02:11:03;;;;;;;6.13;2.90;;;8.20;99.90;;;;;;5015254;28;20021;-73
2022/10/10 02:13:36;;;;;;;7.55;2.53;;;8.10;99.90;;;;;;5015111;28;20025;-74
2022/10/10 02:16:05;;;;;;;6.95;2.85;;;8.00;99.90;;;;;;5015268;28;20163;-73
2022/10/10 02:18:35;;;;;;;4.05;2.60;;;7.90;99.90;;;;;;5015996;28;20022;-73
2022/10/10 02:21:03;;;;;;;4.30;2.45;;;7.90;99.90;;;;;;5015126;28;20021;-73
2022/10/10 02:23:29;;;;;;;6.00;2.97;;;7.80;99.90;;;;;;5023104;28;20017;-74
2022/10/10 02:25:56;;;;;;;5.22;2.85;;;7.80;99.90;;;;;;5052979;28;20032;-73
2022/10/10 02:28:56;;;;;;;6.63;2.80;;;7.80;99.90;;;;;;5052625;28;20055;-73
2022/10/10 02:31:34;;;;;;;5.72;2.92;;;7.80;99.90;;;;;;5017111;28;20033;-73
2022/10/10 02:34:11;;;;;;;6.05;2.60;;;7.70;99.90;;;;;;5050994;28;20059;-73
2022/10/10 02:36:39;;;;;;;4.72;2.55;;;7.70;99.90;;;;;;5033283;28;20036;-73
2022/10/10 02:39:06;;;;;;;6.20;2.88;;;7.70;99.90;;;;;;5015072;28;20391;-73
2022/10/10 02:41:34;;;;;;;6.78;2.90;;;7.70;99.90;;;;;;5015018;28;20025;-73
2022/10/10 02:44:00;;;;;;;4.93;2.63;;;7.70;99.90;;;;;;5032618;28;20049;-73
2022/10/10 02:46:26;;;;;;;4.65;2.58;;;7.70;99.90;;;;;;5033132;28;20061;-73
2022/10/10 02:48:51;;;;;;;4.88;2.60;;;7.60;99.90;;;;;;5018475;28;20056;-73
2022/10/10 02:51:17;;;;;;;6.38;3.10;;;7.50;99.90;;;;;;5018751;28;20017;-74
2022/10/10 02:53:43;;;;;;;4.53;3.22;;;7.50;99.90;;;;;;5038105;28;20028;-73
2022/10/10 02:56:09;;;;;;;3.70;2.70;;;7.50;99.90;;;;;;5038968;28;20051;-73
2022/10/10 02:58:34;;;;;;;6.65;3.28;;;7.60;99.90;;;;;;5038426;28;20052;-73
2022/10/10 03:01:00;;;;;;;3.67;3.25;;;7.60;99.90;;;;;;5038066;28;20506;-73
2022/10/10 03:03:25;;;;;;;4.35;2.72;;;7.60;99.90;;;;;;5038016;28;20112;-74
2022/10/10 03:05:51;;;;;;;5.47;3.10;;;7.50;99.90;;;;;;5038321;28;20112;-73
2022/10/10 03:08:17;;;;;;;4.75;2.60;;;7.50;99.90;;;;;;5037856;28;20079;-73
2022/10/10 03:10:53;;;;;;;3.97;2.80;;;7.50;99.90;;;;;;5038228;28;20052;-73
2022/10/10 03:13:19;;;;;;;3.50;2.50;;;7.40;99.90;;;;;;5020915;28;20124;-74
2022/10/10 03:15:44;;;;;;;4.78;2.53;;;7.40;99.90;;;;;;5035205;28;20064;-74
2022/10/10 03:18:10;;;;;;;15.10;3.63;;;7.30;99.90;;;;;;5034351;28;20505;-74
2022/10/10 03:20:35;;;;;;;7.10;2.97;;;7.20;99.90;;;;;;5035617;28;20034;-73
2022/10/10 03:23:01;;;;;;;9.88;4.53;;;7.30;99.90;;;;;;5034264;28;20028;-74
2022/10/10 03:25:26;;;;;;;6.20;3.25;;;7.30;99.90;;;;;;5031069;28;20115;-74
2022/10/10 03:27:52;;;;;;;6.55;3.25;;;7.30;99.90;;;;;;5035366;28;20388;-73
2022/10/10 03:30:17;;;;;;;10.63;3.08;;;7.30;99.90;;;;;;5017696;28;20014;-73
2022/10/10 03:32:43;;;;;;;7.22;3.33;;;7.40;99.90;;;;;;5021059;28;20135;-74
2022/10/10 03:35:09;;;;;;;8.52;3.35;;;7.50;99.90;;;;;;5037986;28;20035;-73
2022/10/10 03:37:35;;;;;;;4.97;2.90;;;7.50;99.90;;;;;;5037294;28;20025;-73
2022/10/10 03:40:00;;;;;;;5.82;3.17;;;7.50;99.90;;;;;;5038172;28;20074;-74
2022/10/10 03:42:26;;;;;;;5.00;3.15;;;7.50;99.90;;;;;;5037518;28;20100;-74
2022/10/10 03:44:51;;;;;;;4.15;2.67;;;7.50;99.90;;;;;;5055252;28;20474;-73
2022/10/10 03:47:17;;;;;;;6.05;2.90;;;7.50;99.90;;;;;;5037173;28;20028;-73
2022/10/10 03:49:42;;;;;;;4.95;2.67;;;7.40;99.90;;;;;;5034303;28;20027;-74
2022/10/10 03:52:08;;;;;;;2.97;2.08;;;7.20;99.90;;;;;;5018037;28;20021;-74
2022/10/10 03:54:33;;;;;;;3.67;2.45;;;7.00;99.90;;;;;;5017255;28;20026;-73
2022/10/10 03:56:59;;;;;;;6.13;2.97;;;6.90;99.90;;;;;;5017191;28;20037;-73
2022/10/10 03:59:24;;;;;;;5.45;2.90;;;6.80;99.90;;;;;;5017392;28;20116;-73
2022/10/10 04:01:50;;;;;;;5.30;2.80;;;6.80;99.90;;;;;;5017137;28;20029;-73
2022/10/10 04:04:15;;;;;;;3.75;2.20;;;6.80;99.90;;;;;;5017053;28;20026;-74
2022/10/10 04:06:41;;;;;;;4.82;2.40;;;6.80;99.90;;;;;;5017145;28;20040;-74
2022/10/10 04:09:06;;;;;;;8.93;2.70;;;6.80;99.90;;;;;;5017791;28;20025;-73
2022/10/10 04:11:34;;;;;;;4.40;2.50;;;6.90;99.90;;;;;;5017788;28;20028;-73
2022/10/10 04:13:59;;;;;;;4.55;2.50;;;6.90;99.90;;;;;;5034671;28;20021;-74
2022/10/10 04:16:25;;;;;;;4.38;2.50;;;6.90;99.90;;;;;;5016779;28;20018;-73
2022/10/10 04:18:50;;;;;;;6.80;2.50;;;6.90;99.90;;;;;;5017306;28;20025;-73
2022/10/10 04:21:16;;;;;;;5.97;2.60;;;6.90;99.90;;;;;;5017247;28;20021;-74
2022/10/10 04:23:41;;;;;;;4.32;2.35;;;6.80;99.90;;;;;;5036454;28;20079;-73
2022/10/10 04:26:07;;;;;;;6.38;2.00;;;6.70;99.90;;;;;;5054792;28;20021;-73
2022/10/10 04:28:32;;;;;;;4.75;2.33;;;6.70;99.90;;;;;;5036992;28;20047;-73
2022/10/10 04:30:58;;;;;;;5.22;2.40;;;6.70;99.90;;;;;;5036885;28;20025;-73
2022/10/10 04:33:24;;;;;;;2.50;1.83;;;6.70;99.90;;;;;;5036772;28;20083;-74
2022/10/10 04:35:49;;;;;;;2.45;1.92;;;6.60;99.90;;;;;;5036269;28;20029;-74
2022/10/10 04:38:16;;;;;;;4.15;1.98;;;6.50;99.90;;;;;;5036239;28;20024;-74
2022/10/10 04:40:42;;;;;;;3.25;2.28;;;6.60;99.90;;;;;;5036059;28;20040;-74
2022/10/10 04:43:07;;;;;;;5.57;2.40;;;6.60;99.90;;;;;;5036614;28;20028;-75
2022/10/10 04:45:33;;;;;;;6.55;2.30;;;6.60;99.90;;;;;;5054181;28;20086;-75
2022/10/10 04:47:58;;;;;;;3.28;1.95;;;6.60;99.90;;;;;;5053795;28;20104;-75
2022/10/10 04:50:25;;;;;;;7.30;2.10;;;6.70;99.90;;;;;;5035986;28;20023;-75
2022/10/10 04:52:50;;;;;;;4.80;2.00;;;6.60;99.90;;;;;;5035852;28;20029;-75
2022/10/10 04:55:16;;;;;;;4.13;1.92;;;6.60;99.90;;;;;;5040717;28;20028;-75
2022/10/10 04:57:41;;;;;;;5.40;2.42;;;6.60;99.90;;;;;;5033899;28;20032;-75
2022/10/10 05:00:08;;;;;;;3.45;2.17;;;6.60;99.90;;;;;;5016967;28;20017;-75
2022/10/10 05:02:34;;;;;;;4.85;2.58;;;6.50;99.90;;;;;;5016234;28;20045;-75
2022/10/10 05:04:59;;;;;;;4.57;3.25;;;6.40;99.90;;;;;;5034222;28;20068;-75
2022/10/10 05:07:25;;;;;;;5.38;2.40;;;6.30;99.90;;;;;;5033566;28;20056;-75
2022/10/10 05:09:50;;;;;;;5.65;2.40;;;6.20;99.90;;;;;;5038596;28;20419;-75
2022/10/10 05:12:16;;;;;;;3.67;2.40;;;6.20;99.90;;;;;;5054358;28;20023;-75
2022/10/10 05:14:41;;;;;;;4.25;2.22;;;6.30;99.90;;;;;;5035601;28;20472;-75
2022/10/10 05:17:07;;;;;;;5.38;1.70;;;6.40;99.90;;;;;;5053682;28;20028;-75
2022/10/10 05:19:32;;;;;;;4.07;2.22;;;6.40;99.90;;;;;;5035516;28;20084;-75
2022/10/10 05:21:58;;;;;;;5.05;2.00;;;6.40;99.90;;;;;;5035365;28;20025;-75
2022/10/10 05:24:24;;;;;;;5.25;2.30;;;6.50;99.90;;;;;;5053325;28;20025;-75
2022/10/10 05:26:49;;;;;;;4.22;2.35;;;6.40;99.90;;;;;;5042717;28;20030;-75
2022/10/10 05:29:15;;;;;;;9.10;2.53;;;6.30;99.90;;;;;;5016411;28;20018;-75
2022/10/10 05:31:40;;;;;;;3.78;2.20;;;6.30;99.90;;;;;;5033270;28;20040;-75
2022/10/10 05:34:09;;;;;;;4.35;2.50;;;6.40;99.90;;;;;;5015419;28;20531;-75
2022/10/10 05:36:34;;;;;;;7.30;2.53;;;6.30;99.90;;;;;;5015479;28;20176;-75
2022/10/10 05:39:01;;;;;;;4.60;2.25;;;6.30;99.90;;;;;;5033708;28;20064;-75
2022/10/10 05:41:26;;;;;;;4.50;2.15;;;6.30;99.90;;;;;;5015528;28;20029;-75
2022/10/10 05:43:52;;;;;;;6.35;2.78;;;6.40;99.90;;;;;;5015673;28;20089;-75
2022/10/10 05:46:19;;;;;;;3.88;2.30;;;6.40;99.90;;;;;;5015432;28;20026;-75
2022/10/10 05:48:44;;;;;;;4.57;2.17;;;6.40;99.90;;;;;;5015712;28;20075;-75
2022/10/10 05:51:11;;;;;;;5.80;2.53;;;6.50;99.90;;;;;;5015415;28;20029;-75
2022/10/10 05:53:36;;;;;;;7.65;2.67;;;6.50;99.90;;;;;;5032758;28;20068;-75
2022/10/10 05:56:02;;;;;;;3.63;2.40;;;6.50;99.90;;;;;;5033107;28;20021;-75
2022/10/10 05:58:28;;;;;;;3.22;2.17;;;6.50;99.90;;;;;;5033635;28;20029;-75
2022/10/10 06:00:53;;;;;;;5.18;2.17;;;6.50;99.90;;;;;;5015237;28;20037;-75
2022/10/10 06:03:19;;;;;;;8.38;2.40;;;6.50;99.90;;;;;;5015457;28;20033;-75
2022/10/10 06:05:48;;;;;;;7.22;2.50;;;6.50;99.90;;;;;;5032993;28;20026;-75
2022/10/10 06:08:14;;;;;;;7.13;2.25;;;6.50;99.90;;;;;;5033040;28;20081;-75
2022/10/10 06:10:42;;;;;;;5.40;2.00;;;6.50;99.90;;;;;;5033218;28;20534;-75
2022/10/10 06:13:09;;;;;;;8.23;2.40;;;6.50;99.90;;;;;;5015499;28;20175;-75
2022/10/10 06:15:35;;;;;;;4.90;2.42;;;6.60;99.90;;;;;;5033194;28;20163;-75
2022/10/10 06:18:01;;;;;;;7.93;3.13;;;6.60;99.90;;;;;;5033116;28;20056;-75
2022/10/10 06:20:26;;;;;;;6.07;2.78;;;6.70;99.90;;;;;;5034559;28;20033;-75
2022/10/10 06:22:52;;;;;;;3.97;2.55;;;6.70;99.90;;;;;;5018233;28;20025;-75
2022/10/10 06:25:17;;;;;;;5.57;2.88;;;6.60;99.90;;;;;;5019261;28;20029;-75
2022/10/10 06:27:43;;;;;;;9.50;2.80;;;6.60;99.90;;;;;;5019098;28;20025;-75
2022/10/10 06:30:09;;;;;;;6.47;2.80;;;6.60;99.90;;;;;;5037417;28;20052;-75
2022/10/10 06:32:35;;;;;;;6.50;3.85;;;6.80;99.90;;;;;;5024652;28;20025;-75
2022/10/10 06:35:00;;;;;;;6.65;3.63;;;6.90;99.90;;;;;;5056365;28;20021;-76
2022/10/10 06:37:26;;;;;;;8.15;4.35;;;7.10;99.90;;;;;;5038553;28;20021;-76
2022/10/10 06:39:51;;;;;;;5.65;3.38;;;7.40;99.90;;;;;;5038458;28;20025;-75
2022/10/10 06:42:17;;;;;;;8.57;3.53;;;7.50;99.90;;;;;;5039178;28;20025;-75
2022/10/10 06:44:42;;;;;;;6.20;3.05;;;7.60;99.90;;;;;;5041305;28;20036;-75
2022/10/10 06:47:10;;;;;;;4.85;2.83;;;7.50;99.90;;;;;;5018389;28;20095;-75
2022/10/10 06:49:36;;;;;;;6.05;3.28;;;7.40;99.90;;;;;;5018517;28;20021;-75
2022/10/10 06:52:01;;;;;;;5.80;3.13;;;7.40;99.90;;;;;;5018339;28;20017;-75
2022/10/10 06:54:27;;;;;;;6.40;3.45;;;7.30;99.90;;;;;;5018330;28;20112;-75
2022/10/10 06:56:52;;;;;;;8.13;3.55;;;7.20;99.90;;;;;;5018323;28;20021;-75
2022/10/10 06:59:18;;;;;;;9.38;3.75;;;7.20;99.90;;;;;;5035923;28;20076;-75
2022/10/10 07:01:43;;;;;;;7.50;3.00;;;7.20;99.90;;;;;;5018298;28;20064;-75
2022/10/10 07:04:10;;;;;;;7.93;3.05;;;7.30;99.90;;;;;;5034824;28;20029;-75
2022/10/10 07:06:36;;;;;;;12.57;3.22;;;7.40;99.90;;;;;;5027821;28;20112;-75
2022/10/10 07:09:02;;;;;;;5.68;3.58;;;7.40;99.90;;;;;;5044992;28;20108;-75
2022/10/10 07:11:29;;;;;;;9.80;3.75;;;7.50;99.90;;;;;;5035719;28;20032;-76
2022/10/10 07:13:54;;;;;;;8.00;3.20;;;7.50;99.90;;;;;;5023210;28;20056;-76
2022/10/10 07:16:20;;;;;;;7.00;3.40;;;7.50;99.90;;;;;;5017189;28;20061;-77
2022/10/10 07:18:45;;;;;;;8.10;4.00;;;7.60;99.90;;;;;;5017113;28;20021;-76
2022/10/10 07:21:11;;;;;;;8.98;3.85;;;7.70;99.90;;;;;;5017145;28;20052;-76
2022/10/10 07:23:39;;;;;;;5.65;3.40;;;7.80;99.90;;;;;;5027472;28;20021;-76
2022/10/10 07:26:09;;;;;;;7.70;3.55;;;7.90;99.90;;;;;;5018862;28;20021;-76
2022/10/10 07:28:37;;;;;;;6.13;3.50;;;8.10;99.90;;;;;;5032223;28;20022;-76
2022/10/10 07:31:05;;;;;;;5.25;3.28;;;8.20;99.90;;;;;;5032649;28;20029;-76
2022/10/10 07:33:42;;;;;;;8.15;3.97;;;8.30;99.90;;;;;;5036440;28;20068;-76
2022/10/10 07:36:08;;;;;;;8.18;3.40;;;8.30;99.90;;;;;;5021560;28;20148;-76
2022/10/10 07:38:35;;;;;;;8.75;3.70;;;8.30;99.90;;;;;;5017468;28;20030;-75
2022/10/10 07:41:05;;;;;;;6.85;3.63;;;8.30;99.90;;;;;;5017342;28;20128;-76
2022/10/10 07:43:30;;;;;;;9.02;4.30;;;8.40;99.90;;;;;;5017369;28;20133;-76
2022/10/10 07:45:56;;;;;;;9.07;4.10;;;8.50;99.90;;;;;;5020091;28;20480;-76
2022/10/10 07:48:22;;;;;;;5.60;3.60;;;8.70;99.90;;;;;;5017334;28;20033;-76
2022/10/10 07:50:48;;;;;;;6.93;3.85;;;9.00;99.90;;;;;;5017633;28;20384;-76
2022/10/10 07:53:13;;;;;;;5.47;3.35;;;9.10;99.90;;;;;;5045154;28;20407;-76
2022/10/10 07:55:47;;;;;;;13.57;4.22;;;9.10;99.90;;;;;;5022104;28;20061;-75
2022/10/10 07:58:13;;;;;;;7.45;4.07;;;9.10;99.90;;;;;;5053279;28;20020;-75
2022/10/10 08:00:41;;;;;;;6.28;4.00;;;9.10;99.90;;;;;;5036936;28;20036;-76
2022/10/10 08:03:07;;;;;;;8.68;4.13;;;9.20;99.90;;;;;;5050545;28;20021;-76
2022/10/10 08:05:43;;;;;;;6.28;3.85;;;9.20;99.90;;;;;;5035983;28;20155;-75
2022/10/10 08:08:13;;;;;;;8.88;4.13;;;9.30;99.90;;;;;;5016669;28;20029;-75
2022/10/10 08:10:50;;;;;;;11.60;4.18;;;9.50;99.90;;;;;;5016972;28;20052;-75
2022/10/10 08:13:41;;;;;;;12.18;4.53;;;9.50;99.90;;;;;;5016606;28;20040;-75
2022/10/10 08:16:31;;;;;;;9.57;3.95;;;9.50;99.90;;;;;;5034710;28;20021;-75
2022/10/10 08:18:57;;;;;;;9.05;3.92;;;9.60;99.90;;;;;;5017044;28;20072;-75
2022/10/10 08:21:23;;;;;;;7.68;4.22;;;9.70;99.90;;;;;;5022715;28;20065;-75
2022/10/10 08:23:48;;;;;;;7.30;4.10;;;9.90;99.90;;;;;;5016502;28;20029;-75
2022/10/10 08:26:16;;;;;;;6.68;4.28;;;10.10;99.90;;;;;;5016425;28;20052;-75
2022/10/10 08:28:42;;;;;;;8.40;3.55;;;10.20;99.90;;;;;;5016363;28;20079;-76
2022/10/10 08:31:20;;;;;;;4.82;3.30;;;10.40;99.90;;;;;;5017264;28;20022;-76
2022/10/10 08:33:49;;;;;;;9.40;4.10;;;10.50;99.90;;;;;;5016936;28;20075;-76
2022/10/10 08:36:26;;;;;;;10.52;4.05;;;10.60;99.90;;;;;;5034186;28;20049;-76
2022/10/10 08:38:58;;;;;;;7.55;4.10;;;10.70;99.90;;;;;;5017061;28;20021;-75
2022/10/10 08:42:13;;;;;;;9.20;4.25;;;10.80;99.90;;;;;;5017447;28;20125;-76
2022/10/10 08:45:02;;;;;;;11.70;3.85;;;10.90;99.90;;;;;;4953358;28;20195;-76
2022/10/10 08:48:22;;;;;;;9.40;4.22;;;11.10;99.90;;;;;;4953922;28;20530;-76
2022/10/10 08:51:08;;;;;;;8.60;4.32;;;11.20;99.90;;;;;;4968607;28;20035;-76
2022/10/10 08:53:47;;;;;;;18.80;4.50;;;11.40;99.90;;;;;;4965832;28;20063;-76
2022/10/10 08:56:23;;;;;;;9.23;3.47;;;11.50;99.90;;;;;;4957786;28;20106;-76
2022/10/10 08:58:54;;;;;;;10.57;3.65;;;11.60;99.90;;;;;;4956935;28;20501;-76
2022/10/10 09:01:32;;;;;;;10.50;4.07;;;11.60;99.90;;;;;;4973049;28;20030;-76
2022/10/10 09:04:18;;;;;;;6.53;3.65;;;11.70;99.90;;;;;;4957135;28;20431;-76
2022/10/10 09:07:23;;;;;;;10.85;3.75;;;11.80;99.90;;;;;;4973478;28;20046;-76
2022/10/10 09:13:18;;;;;;;8.98;3.72;;;12.20;99.90;;;;;;4974915;28;20181;-76
2022/10/10 09:15:51;;;;;;;7.28;3.53;;;12.30;99.90;;;;;;4967466;28;20035;-76
2022/10/10 09:18:35;;;;;;;5.28;3.28;;;12.30;99.90;;;;;;4967795;28;20023;-76
2022/10/10 09:21:44;;;;;;;7.75;3.33;;;12.40;99.90;;;;;;4974830;28;20037;-76
2022/10/10 09:24:13;;;;;;;10.05;3.83;;;12.60;99.90;;;;;;5021932;28;20075;-76
2022/10/10 09:26:50;;;;;;;9.73;4.00;;;12.50;99.90;;;;;;5053351;28;20017;-76
2022/10/10 09:29:16;;;;;;;9.00;3.47;;;12.60;99.90;;;;;;5022536;28;20032;-76
2022/10/10 09:31:49;;;;;;;16.65;3.97;;;12.80;99.90;;;;;;5036230;28;20017;-76
2022/10/10 09:34:29;;;;;;;9.95;3.55;;;12.90;99.90;;;;;;5028630;28;20032;-76
2022/10/10 09:36:59;;;;;;;6.38;3.08;;;13.00;99.90;;;;;;5033727;28;20051;-76
2022/10/10 09:42:47;;;;;;;13.77;3.53;;;13.30;99.90;;;;;;5033289;28;20033;-76
2022/10/10 09:45:35;;;;;;;10.07;3.88;;;13.50;99.90;;;;;;5016061;28;20021;-76
2022/10/10 09:48:02;;;;;;;7.13;3.45;;;13.70;99.90;;;;;;5015854;28;20037;-76
2022/10/10 09:53:50;;;;;;;7.55;3.50;;;14.00;99.90;;;;;;5039439;28;20556;-76
2022/10/10 09:56:30;;;;;;;6.93;3.30;;;14.00;99.90;;;;;;5020099;28;20113;-76
2022/10/10 09:58:56;;;;;;;6.30;3.58;;;14.10;99.90;;;;;;5037185;28;20044;-76
2022/10/10 10:01:41;;;;;;;11.32;3.67;;;14.20;99.90;;;;;;5019220;28;20028;-76
2022/10/10 10:04:19;;;;;;;5.20;3.22;;;14.50;99.90;;;;;;5018938;28;20033;-76
2022/10/10 10:07:22;;;;;;;7.35;3.10;;;14.50;99.90;;;;;;5022487;28;20116;-76
2022/10/10 10:10:09;;;;;;;11.60;3.33;;;14.60;99.90;;;;;;5035528;28;20080;-76
2022/10/10 10:12:43;;;;;;;7.28;3.63;;;14.70;99.90;;;;;;5019074;28;20028;-75
2022/10/10 10:15:22;;;;;;;9.68;2.95;;;14.90;99.90;;;;;;5019139;28;20029;-75
2022/10/10 10:18:15;;;;;;;7.75;3.08;;;15.10;99.90;;;;;;5036731;28;20404;-75
2022/10/10 10:20:43;;;;;;;5.53;3.00;;;15.40;99.90;;;;;;5019032;28;20029;-76
2022/10/10 10:23:31;;;;;;;5.18;3.25;;;15.70;99.90;;;;;;5036572;28;20079;-76
2022/10/10 10:26:14;;;;;;;5.80;3.05;;;15.90;99.90;;;;;;5018993;28;20032;-76
2022/10/10 10:29:10;;;;;;;15.07;3.67;;;15.90;99.90;;;;;;5036595;28;20025;-75
2022/10/10 10:31:45;;;;;;;9.77;3.28;;;15.90;99.90;;;;;;5037084;28;20056;-75
2022/10/10 10:34:42;;;;;;;8.93;2.97;;;16.10;99.90;;;;;;5037738;28;20044;-75
2022/10/10 10:37:16;;;;;;;11.27;4.28;;;16.10;99.90;;;;;;5036506;28;20100;-75
2022/10/10 10:40:24;;;;;;;7.35;3.40;;;16.30;99.90;;;;;;5018963;28;20049;-75
2022/10/10 10:43:13;;;;;;;10.85;3.80;;;16.60;99.90;;;;;;4921218;29;20031;-75
2022/10/10 10:46:05;;;;;;;8.07;4.25;;;16.70;99.90;;;;;;5019124;28;20029;-74
2022/10/10 10:48:40;;;;;;;7.28;3.88;;;16.70;99.90;;;;;;5018588;28;20040;-74
2022/10/10 10:51:26;;;;;;;8.40;3.90;;;17.10;99.90;;;;;;5019357;28;20028;-75
2022/10/10 10:54:04;;;;;;;6.45;4.25;;;17.30;99.90;;;;;;5019020;28;20017;-75
2022/10/10 10:56:48;;;;;;;11.65;4.45;;;17.70;99.90;;;;;;5018854;28;20076;-75
2022/10/10 10:59:25;;;;;;;12.88;4.40;;;17.60;99.90;;;;;;5018214;28;20028;-74
2022/10/10 11:02:30;;;;;;;7.78;4.30;;;17.80;99.90;;;;;;5037535;28;20025;-73
2022/10/10 11:05:25;;;;;;;15.75;4.30;;;18.10;99.90;;;;;;5031239;28;20032;-73
2022/10/10 11:08:34;;;;;;;6.65;3.97;;;18.30;99.90;;;;;;5035340;28;20083;-73
2022/10/10 11:11:23;;;;;;;5.05;3.95;;;18.40;99.90;;;;;;4990855;28;20040;-73
2022/10/10 11:14:35;;;;;;;12.18;5.18;;;18.40;99.90;;;;;;5047316;28;20123;-74
2022/10/10 11:17:21;;;;;;;8.60;4.97;;;18.80;99.90;;;;;;4955671;28;20037;-73
2022/10/10 11:20:24;;;;;;;12.95;4.35;;;18.90;99.90;;;;;;4955709;29;20034;-73
2022/10/10 11:23:04;;;;;;;7.43;4.53;;;19.00;99.90;;;;;;4974800;28;20023;-73
2022/10/10 11:25:37;;;;;;;10.02;4.15;;;18.60;99.90;;;;;;4958931;28;20031;-72
2022/10/10 11:28:10;;;;;;;8.48;5.18;;;18.50;99.90;;;;;;4955556;28;20042;-72
2022/10/10 11:30:43;;;;;;;12.13;5.72;;;18.40;99.90;;;;;;4955748;29;20063;-72
2022/10/10 11:33:09;;;;;;;10.32;4.72;;;18.50;99.90;;;;;;4939459;28;20043;-73
2022/10/10 11:35:48;;;;;;;10.52;4.95;;;18.70;99.90;;;;;;4955207;28;20043;-73
2022/10/10 11:38:22;;;;;;;11.20;5.05;;;18.80;99.90;;;;;;4955220;29;20063;-73
2022/10/10 11:40:52;;;;;;;9.13;4.75;;;19.10;99.90;;;;;;4955967;29;20055;-73
2022/10/10 11:43:37;;;;;;;9.73;5.00;;;19.40;99.90;;;;;;4955321;29;20067;-73
2022/10/10 11:46:15;;;;;;;12.85;5.32;;;19.30;99.90;;;;;;4955307;28;20137;-72
2022/10/10 11:49:10;;;;;;;8.02;4.53;;;19.00;99.90;;;;;;4955005;29;20114;-72
2022/10/10 11:52:09;;;;;;;7.80;4.45;;;19.00;99.90;;;;;;4939749;28;20131;-73
2022/10/10 11:58:35;;;;;;;10.30;4.97;;;19.30;99.90;;;;;;5035506;28;20040;-73
2022/10/10 12:01:22;;;;;;;8.23;4.93;;;19.60;99.90;;;;;;5034930;28;20051;-73
2022/10/10 12:03:57;;;;;;;9.52;4.22;;;19.70;99.90;;;;;;5017175;28;20041;-73
2022/10/10 12:06:35;;;;;;;10.70;4.28;;;19.70;99.90;;;;;;5017159;28;20060;-73
2022/10/10 12:09:12;;;;;;;6.07;4.25;;;19.50;99.90;;;;;;5040293;28;20021;-73
2022/10/10 12:12:18;;;;;;;7.85;4.10;;;19.70;99.90;;;;;;5054551;28;20421;-73
2022/10/10 12:14:47;;;;;;;10.98;4.18;;;20.00;99.90;;;;;;5036914;28;20025;-73
2022/10/10 12:17:44;;;;;;;9.88;3.95;;;19.90;99.90;;;;;;5054512;28;20028;-74
2022/10/10 12:20:32;;;;;;;6.57;4.45;;;20.50;99.90;;;;;;5035612;28;20120;-73
2022/10/10 12:23:47;;;;;;;9.00;4.38;;;21.30;99.90;;;;;;5022541;28;20036;-73
2022/10/10 12:26:45;;;;;;;10.15;3.92;;;21.20;99.90;;;;;;5036407;28;20024;-73
2022/10/10 12:29:44;;;;;;;7.22;3.92;;;20.70;99.90;;;;;;5036719;28;20085;-73
2022/10/10 12:32:18;;;;;;;10.18;4.50;;;20.70;99.90;;;;;;5036443;28;20487;-73
2022/10/10 12:34:49;;;;;;;10.98;3.88;;;21.00;99.90;;;;;;5048138;28;20024;-74
2022/10/10 12:37:25;;;;;;;7.55;3.60;;;21.10;99.90;;;;;;5074355;28;20024;-73
2022/10/10 12:40:06;;;;;;;9.18;4.47;;;21.80;99.90;;;;;;5056739;28;20078;-73
2022/10/10 12:42:58;;;;;;;10.90;3.70;;;21.70;99.90;;;;;;5056337;28;20565;-73
2022/10/10 12:45:32;;;;;;;11.23;4.15;;;21.50;99.90;;;;;;5056043;28;20115;-73
2022/10/10 12:48:03;;;;;;;14.75;3.80;;;21.90;99.90;;;;;;5056132;28;20399;-73
2022/10/10 12:54:22;;;;;;;5.53;3.45;;;21.40;99.90;;;;;;5074085;28;20020;-74
2022/10/10 12:56:57;;;;;;;10.43;3.28;;;21.10;99.90;;;;;;5016081;28;20033;-74
2022/10/10 12:59:24;;;;;;;5.78;3.55;;;21.10;99.90;;;;;;5016031;28;20087;-74
2022/10/10 13:02:24;;;;;;;9.23;3.17;;;21.30;99.90;;;;;;5016280;28;20021;-74
2022/10/10 13:04:59;;;;;;;11.50;3.30;;;21.60;99.90;;;;;;5017000;28;20031;-76
2022/10/10 13:07:25;;;;;;;7.88;3.22;;;22.00;99.90;;;;;;5016651;28;20500;-75
2022/10/10 13:09:53;;;;;;;7.88;3.25;;;22.30;99.90;;;;;;5017104;28;20153;-76
2022/10/10 13:12:42;;;;;;;4.43;2.78;;;22.60;99.90;;;;;;5027955;28;20071;-76
2022/10/10 13:15:19;;;;;;;12.43;2.67;;;23.10;99.90;;;;;;5035750;28;20373;-76
2022/10/10 13:17:44;;;;;;;8.35;3.08;;;23.50;99.90;;;;;;5035843;28;20028;-76
2022/10/10 13:20:35;;;;;;;5.13;2.72;;;24.00;99.90;;;;;;5035762;28;20031;-76
2022/10/10 13:23:10;;;;;;;7.35;3.00;;;24.00;99.90;;;;;;5035823;28;20079;-76
2022/10/10 13:25:37;;;;;;;6.10;2.70;;;24.40;99.90;;;;;;5035687;28;20492;-76
2022/10/10 13:28:04;;;;;;;5.45;2.78;;;24.40;99.90;;;;;;5035896;28;20124;-76
2022/10/10 13:30:29;;;;;;;9.35;3.55;;;24.40;99.90;;;;;;5053001;28;20543;-77
2022/10/10 13:32:56;;;;;;;8.07;2.55;;;24.40;99.90;;;;;;5053500;28;20067;-78
2022/10/10 13:38:45;;;;;;;8.07;3.00;;;24.30;99.90;;;;;;5053832;28;20366;-76
2022/10/10 13:41:12;;;;;;;9.65;3.30;;;24.00;99.90;;;;;;5036384;28;20036;-76
2022/10/10 13:43:39;;;;;;;5.93;2.60;;;24.40;99.90;;;;;;5036285;28;20069;-76